Foley, Missouri
Current Conditions -  °F | °C
As of 7:54 PM on Friday 24 Oct 2014 (Local Time) from KSET Reporting Station
Broken Clouds Broken Clouds  
Wind Chill: 61°   Ceiling: 4600
Heat Index: 61°   Visibility: 10mi
Dew Point: 51°   Wind: 3mph
Humidity: 70%   Direction: 110°ESE
Pressure: 29.99"   Gusts: NA
Location:  39.05°N, 90.74°W
Report Text: KSET 250054Z AUTO 11003KT 10SM BKN046 16/11 A2999 RMK AO2 SLP153 T01610106
Loading
Personal Weather Stations






























Interactive Weather Map
Tropical Storm Tracking
New forecast layout! Learn more

10-Day Weather Forecast

Advertisements
Track Severe Weather on mobile